Time;durP1;ratioP1;P1;durP2;ratioP2;P2;SDS_P1;SDS_P2;PMS_P1;PMS_P2;Temp;Humidity;BMP_temperature;BMP_pressure;BME280_temperature;BME280_humidity;BME280_pressure;Samples;Min_cycle;Max_cycle;Signal;HPM_P1;HPM_P2
2022/12/18 00:01:25;;;;;;;;;;;17.50;57.80;;;;;;5062756;28;1349;-67
2022/12/18 00:03:51;;;;;;;;;;;17.50;57.90;;;;;;5065868;28;1424;-69
2022/12/18 00:06:16;;;;;;;;;;;17.50;57.80;;;;;;5060823;28;784;-68
2022/12/18 00:08:42;;;;;;;;;;;17.50;57.90;;;;;;5061707;28;1901;-68
2022/12/18 00:11:09;;;;;;;;;;;17.50;57.90;;;;;;5065183;28;1390;-68
2022/12/18 00:13:34;;;;;;;;;;;17.50;57.90;;;;;;5062542;28;1070;-68
2022/12/18 00:16:04;;;;;;;;;;;17.50;57.90;;;;;;5064353;28;844;-68
2022/12/18 00:18:29;;;;;;;;;;;17.50;57.90;;;;;;5062891;28;1061;-68
2022/12/18 00:20:57;;;;;;;;;;;17.50;57.90;;;;;;5060531;28;1358;-68
2022/12/18 00:23:23;;;;;;;;;;;17.50;57.90;;;;;;5068539;28;935;-68
2022/12/18 00:25:48;;;;;;;;;;;17.50;57.90;;;;;;5062906;28;1512;-68
2022/12/18 00:28:14;;;;;;;;;;;17.50;57.90;;;;;;5065220;28;1905;-68
2022/12/18 00:30:39;;;;;;;;;;;17.50;57.90;;;;;;5061984;28;1349;-68
2022/12/18 00:33:05;;;;;;;;;;;17.50;57.90;;;;;;5059080;28;847;-69
2022/12/18 00:35:31;;;;;;;;;;;17.50;57.90;;;;;;5064117;28;867;-70
2022/12/18 00:37:56;;;;;;;;;;;17.50;58.50;;;;;;5061683;28;882;-70
2022/12/18 00:40:22;;;;;;;;;;;17.50;58.00;;;;;;5060919;28;1342;-68
2022/12/18 00:42:56;;;;;;;;;;;17.50;58.00;;;;;;5060505;28;1018;-69
2022/12/18 00:45:25;;;;;;;;;;;17.50;58.00;;;;;;5061667;28;856;-67
2022/12/18 00:47:50;;;;;;;;;;;17.50;58.00;;;;;;5060649;28;1906;-67
2022/12/18 00:50:16;;;;;;;;;;;17.50;58.00;;;;;;5059729;28;1249;-67
2022/12/18 00:52:42;;;;;;;;;;;17.50;58.00;;;;;;5062009;28;1393;-67
2022/12/18 00:55:08;;;;;;;;;;;17.50;58.00;;;;;;5062589;28;1246;-67
2022/12/18 00:57:33;;;;;;;;;;;17.40;58.00;;;;;;5060683;28;840;-67
2022/12/18 00:59:59;;;;;;;;;;;17.50;58.00;;;;;;5064417;28;1311;-67
2022/12/18 01:02:24;;;;;;;;;;;17.50;58.00;;;;;;5061548;28;1178;-67
2022/12/18 01:04:50;;;;;;;;;;;17.50;58.00;;;;;;5060665;28;1363;-67
2022/12/18 01:07:15;;;;;;;;;;;17.40;57.90;;;;;;5042572;28;1596;-68
2022/12/18 01:09:41;;;;;;;;;;;17.50;58.00;;;;;;5062922;28;1965;-69
2022/12/18 01:12:06;;;;;;;;;;;17.50;58.00;;;;;;5065156;28;1293;-70
2022/12/18 01:14:31;;;;;;;;;;;17.40;57.90;;;;;;5077875;28;926;-69
2022/12/18 01:16:57;;;;;;;;;;;17.50;58.00;;;;;;5063335;28;836;-69
2022/12/18 01:19:23;;;;;;;;;;;17.50;58.00;;;;;;5062635;28;824;-70
2022/12/18 01:21:49;;;;;;;;;;;17.50;57.90;;;;;;5057598;28;1248;-69
2022/12/18 01:24:14;;;;;;;;;;;17.50;57.90;;;;;;5064160;28;1014;-69
2022/12/18 01:26:40;;;;;;;;;;;17.50;57.90;;;;;;5061504;28;867;-67
2022/12/18 01:29:05;;;;;;;;;;;17.50;57.90;;;;;;5061719;28;1910;-69
2022/12/18 01:31:31;;;;;;;;;;;17.50;57.90;;;;;;5056542;28;1265;-69
2022/12/18 01:33:57;;;;;;;;;;;17.50;57.90;;;;;;5062579;28;939;-68
2022/12/18 01:36:23;;;;;;;;;;;17.50;57.90;;;;;;5059236;28;926;-69
2022/12/18 01:38:49;;;;;;;;;;;17.50;57.80;;;;;;5056331;28;891;-69
2022/12/18 01:41:15;;;;;;;;;;;17.50;57.80;;;;;;5058673;28;1248;-67
2022/12/18 01:43:41;;;;;;;;;;;17.50;57.90;;;;;;5059360;28;1611;-67
2022/12/18 01:46:07;;;;;;;;;;;17.50;57.90;;;;;;5059411;28;943;-68
2022/12/18 01:48:32;;;;;;;;;;;17.50;57.80;;;;;;5064688;28;2409;-67
2022/12/18 01:50:58;;;;;;;;;;;17.50;57.90;;;;;;5062481;28;1260;-68
2022/12/18 01:53:23;;;;;;;;;;;17.50;57.90;;;;;;5060419;28;864;-67
2022/12/18 01:55:52;;;;;;;;;;;17.50;57.80;;;;;;5055867;28;938;-67
2022/12/18 01:58:18;;;;;;;;;;;17.50;57.80;;;;;;5057159;28;963;-67
2022/12/18 02:00:44;;;;;;;;;;;17.50;57.90;;;;;;5058737;28;1377;-68
2022/12/18 02:03:09;;;;;;;;;;;17.50;57.90;;;;;;5060280;28;1118;-68
2022/12/18 02:05:49;;;;;;;;;;;17.50;57.90;;;;;;5057155;28;941;-67
2022/12/18 02:08:32;;;;;;;;;;;17.50;57.90;;;;;;5059041;28;1916;-69
2022/12/18 02:11:09;;;;;;;;;;;17.50;57.90;;;;;;5051695;28;1318;-69
2022/12/18 02:13:46;;;;;;;;;;;17.50;57.90;;;;;;5062226;28;1005;-68
2022/12/18 02:16:15;;;;;;;;;;;17.50;57.90;;;;;;5055867;28;895;-68
2022/12/18 02:18:41;;;;;;;;;;;17.50;57.90;;;;;;5060746;28;919;-68
2022/12/18 02:21:13;;;;;;;;;;;17.50;57.90;;;;;;5066420;28;1343;-68
2022/12/18 02:24:02;;;;;;;;;;;17.50;58.50;;;;;;5058621;28;982;-68
2022/12/18 02:26:34;;;;;;;;;;;17.50;57.90;;;;;;5061482;28;844;-68
2022/12/18 02:29:03;;;;;;;;;;;17.50;57.90;;;;;;5060081;28;1959;-68
2022/12/18 02:31:29;;;;;;;;;;;17.50;57.90;;;;;;5061195;28;1279;-68
2022/12/18 02:33:57;;;;;;;;;;;17.50;57.90;;;;;;5056981;28;855;-68
2022/12/18 02:36:22;;;;;;;;;;;17.50;57.90;;;;;;5057591;28;891;-68
2022/12/18 02:38:48;;;;;;;;;;;17.50;57.90;;;;;;5063796;28;839;-68
2022/12/18 02:41:13;;;;;;;;;;;17.50;57.90;;;;;;5061384;28;1282;-68
2022/12/18 02:43:39;;;;;;;;;;;17.50;57.80;;;;;;5059182;28;879;-68
2022/12/18 02:46:23;;;;;;;;;;;17.50;57.80;;;;;;5056270;28;1158;-69
2022/12/18 02:48:48;;;;;;;;;;;17.50;57.80;;;;;;5056858;28;1898;-67
2022/12/18 02:51:18;;;;;;;;;;;17.50;57.80;;;;;;5066026;28;1242;-68
2022/12/18 02:53:44;;;;;;;;;;;17.50;57.80;;;;;;5061775;28;856;-67
2022/12/18 02:56:14;;;;;;;;;;;17.50;57.70;;;;;;5063295;28;1506;-68
2022/12/18 02:58:43;;;;;;;;;;;17.50;57.70;;;;;;5052072;28;1183;-68
2022/12/18 03:01:14;;;;;;;;;;;17.50;57.70;;;;;;5064692;28;1357;-68
2022/12/18 03:03:41;;;;;;;;;;;17.50;57.80;;;;;;5061367;28;988;-68
2022/12/18 03:06:10;;;;;;;;;;;17.50;57.80;;;;;;5063339;28;1331;-67
2022/12/18 03:08:37;;;;;;;;;;;17.50;57.70;;;;;;5065726;28;1901;-68
2022/12/18 03:11:10;;;;;;;;;;;17.50;57.70;;;;;;5059528;28;1400;-68
2022/12/18 03:13:52;;;;;;;;;;;17.50;57.70;;;;;;5061600;28;1365;-68
2022/12/18 03:16:22;;;;;;;;;;;17.50;57.70;;;;;;5061924;28;1053;-68
2022/12/18 03:18:50;;;;;;;;;;;17.50;57.70;;;;;;5060948;28;891;-68
2022/12/18 03:21:16;;;;;;;;;;;17.50;57.80;;;;;;5061444;28;1284;-67
2022/12/18 03:23:43;;;;;;;;;;;17.50;57.70;;;;;;5061759;28;899;-69
2022/12/18 03:26:10;;;;;;;;;;;17.50;57.80;;;;;;5062936;28;950;-68
2022/12/18 03:28:37;;;;;;;;;;;17.50;57.80;;;;;;5064288;28;1894;-68
2022/12/18 03:31:02;;;;;;;;;;;17.50;57.80;;;;;;5061499;28;1380;-68
2022/12/18 03:33:35;;;;;;;;;;;17.50;57.80;;;;;;5061031;28;1258;-68
2022/12/18 03:36:00;;;;;;;;;;;17.50;57.70;;;;;;5063292;28;944;-67
2022/12/18 03:38:26;;;;;;;;;;;17.50;57.70;;;;;;5062551;28;852;-68
2022/12/18 03:40:54;;;;;;;;;;;17.50;57.70;;;;;;5061648;28;1237;-68
2022/12/18 03:43:22;;;;;;;;;;;17.50;57.70;;;;;;5062879;28;914;-68
2022/12/18 03:45:53;;;;;;;;;;;17.50;57.90;;;;;;5062427;28;1022;-68
2022/12/18 03:48:27;;;;;;;;;;;17.50;57.70;;;;;;5065838;28;1973;-68
2022/12/18 03:50:59;;;;;;;;;;;17.50;57.70;;;;;;5061580;28;1275;-68
2022/12/18 03:53:27;;;;;;;;;;;17.50;57.70;;;;;;5063106;28;882;-68
2022/12/18 03:55:52;;;;;;;;;;;17.50;57.70;;;;;;5062226;28;950;-68
2022/12/18 03:58:20;;;;;;;;;;;17.50;57.70;;;;;;5070322;28;1281;-68
2022/12/18 04:00:45;;;;;;;;;;;17.50;57.70;;;;;;5045025;28;1279;-68
2022/12/18 04:03:11;;;;;;;;;;;17.50;57.70;;;;;;5059424;28;1349;-67
2022/12/18 04:05:36;;;;;;;;;;;17.50;57.70;;;;;;5057917;28;946;-67
2022/12/18 04:08:02;;;;;;;;;;;17.50;57.70;;;;;;5060113;28;1973;-68
2022/12/18 04:10:27;;;;;;;;;;;17.50;57.70;;;;;;5058447;28;1276;-69
2022/12/18 04:12:55;;;;;;;;;;;17.50;57.70;;;;;;5055765;28;1756;-69
2022/12/18 04:15:20;;;;;;;;;;;17.50;57.60;;;;;;5061373;28;1400;-69
2022/12/18 04:17:49;;;;;;;;;;;17.60;57.60;;;;;;5060506;28;1422;-69
2022/12/18 04:20:14;;;;;;;;;;;17.60;57.60;;;;;;5062394;28;1371;-69
2022/12/18 04:22:40;;;;;;;;;;;17.60;57.50;;;;;;5060376;28;835;-69
2022/12/18 04:25:05;;;;;;;;;;;17.60;57.50;;;;;;5060446;28;934;-70
2022/12/18 04:27:31;;;;;;;;;;;17.60;57.40;;;;;;5062239;28;827;-69
2022/12/18 04:29:56;;;;;;;;;;;17.60;57.30;;;;;;5058295;28;1960;-69
2022/12/18 04:32:22;;;;;;;;;;;17.70;57.30;;;;;;5061904;28;1264;-69
2022/12/18 04:34:47;;;;;;;;;;;17.70;57.30;;;;;;5060234;28;816;-68
2022/12/18 04:37:13;;;;;;;;;;;17.70;57.20;;;;;;5061170;28;983;-69
2022/12/18 04:39:38;;;;;;;;;;;17.70;57.10;;;;;;5061909;28;897;-69
2022/12/18 04:42:03;;;;;;;;;;;17.70;57.10;;;;;;5058401;28;1271;-69
2022/12/18 04:44:29;;;;;;;;;;;17.70;57.10;;;;;;5061292;28;1026;-69
2022/12/18 04:46:55;;;;;;;;;;;17.80;57.10;;;;;;5059738;28;848;-68
2022/12/18 04:49:21;;;;;;;;;;;17.80;57.00;;;;;;5057163;28;1902;-68
2022/12/18 04:51:46;;;;;;;;;;;17.80;57.00;;;;;;5062422;28;1362;-68
2022/12/18 04:54:12;;;;;;;;;;;17.80;57.00;;;;;;5061672;28;1409;-68
2022/12/18 04:56:37;;;;;;;;;;;17.80;56.90;;;;;;5060088;28;896;-68
2022/12/18 04:59:03;;;;;;;;;;;17.80;56.90;;;;;;5063001;28;928;-68
2022/12/18 05:01:28;;;;;;;;;;;17.80;56.90;;;;;;5061321;28;1343;-69
2022/12/18 05:03:53;;;;;;;;;;;17.80;56.80;;;;;;5062905;28;1347;-69
2022/12/18 05:06:19;;;;;;;;;;;17.80;56.80;;;;;;5060444;28;1261;-69
2022/12/18 05:08:44;;;;;;;;;;;17.80;56.80;;;;;;5058181;28;1906;-69
2022/12/18 05:11:11;;;;;;;;;;;17.80;56.80;;;;;;5059069;28;1350;-68
2022/12/18 05:13:37;;;;;;;;;;;17.90;56.90;;;;;;5061199;28;852;-68
2022/12/18 05:16:03;;;;;;;;;;;17.90;56.80;;;;;;5058960;28;1287;-68
2022/12/18 05:18:29;;;;;;;;;;;17.90;56.80;;;;;;5060710;28;856;-68
2022/12/18 05:20:54;;;;;;;;;;;17.80;56.70;;;;;;5059032;28;1362;-68
2022/12/18 05:23:20;;;;;;;;;;;17.80;56.70;;;;;;5059295;28;858;-68
2022/12/18 05:25:52;;;;;;;;;;;17.90;56.80;;;;;;5060605;28;1455;-70
2022/12/18 05:28:18;;;;;;;;;;;17.90;56.80;;;;;;5057533;28;1971;-71
2022/12/18 05:30:47;;;;;;;;;;;17.90;56.80;;;;;;5062216;28;1327;-70
2022/12/18 05:33:12;;;;;;;;;;;17.90;56.80;;;;;;5061806;28;1030;-70
2022/12/18 05:35:38;;;;;;;;;;;17.90;56.80;;;;;;5059403;28;865;-69
2022/12/18 05:38:03;;;;;;;;;;;17.80;56.70;;;;;;5060949;28;962;-70
2022/12/18 05:40:28;;;;;;;;;;;17.90;56.80;;;;;;5064420;28;1285;-70
2022/12/18 05:42:54;;;;;;;;;;;17.90;56.80;;;;;;5063381;28;851;-70
2022/12/18 05:45:20;;;;;;;;;;;17.90;56.80;;;;;;5059320;28;1743;-69
2022/12/18 05:47:45;;;;;;;;;;;17.90;56.80;;;;;;5059919;28;1296;-69
2022/12/18 05:50:11;;;;;;;;;;;17.90;56.80;;;;;;5058656;28;1902;-69
2022/12/18 05:52:36;;;;;;;;;;;17.80;56.80;;;;;;5059979;28;978;-69
2022/12/18 05:55:02;;;;;;;;;;;17.80;56.80;;;;;;5063538;28;902;-69
2022/12/18 05:57:27;;;;;;;;;;;17.80;56.70;;;;;;5059846;28;1006;-68
2022/12/18 05:59:53;;;;;;;;;;;17.80;56.80;;;;;;5058569;28;1257;-68
2022/12/18 06:02:20;;;;;;;;;;;17.80;56.80;;;;;;5060474;28;1249;-68
2022/12/18 06:04:46;;;;;;;;;;;17.80;56.80;;;;;;5062073;28;1357;-68
2022/12/18 06:07:11;;;;;;;;;;;17.80;56.80;;;;;;5058450;28;943;-69
2022/12/18 06:09:37;;;;;;;;;;;17.80;56.80;;;;;;5061345;28;1965;-68
2022/12/18 06:12:02;;;;;;;;;;;17.80;56.80;;;;;;5060118;28;1280;-69
2022/12/18 06:14:28;;;;;;;;;;;17.80;56.90;;;;;;5058738;28;777;-68
2022/12/18 06:16:53;;;;;;;;;;;17.80;56.90;;;;;;5060399;28;833;-68
2022/12/18 06:19:19;;;;;;;;;;;17.80;56.90;;;;;;5059102;28;855;-68
2022/12/18 06:21:44;;;;;;;;;;;17.80;56.90;;;;;;5059224;28;1243;-68
2022/12/18 06:24:10;;;;;;;;;;;17.80;56.90;;;;;;5059476;28;772;-68
2022/12/18 06:26:36;;;;;;;;;;;17.80;56.90;;;;;;5061826;28;863;-69
2022/12/18 06:29:02;;;;;;;;;;;17.80;57.00;;;;;;5067058;28;1967;-70
2022/12/18 06:31:27;;;;;;;;;;;17.70;56.90;;;;;;5061824;28;1264;-68
2022/12/18 06:33:53;;;;;;;;;;;17.80;57.00;;;;;;5064717;28;963;-68
2022/12/18 06:36:19;;;;;;;;;;;17.80;57.00;;;;;;5065031;28;887;-67
2022/12/18 06:38:45;;;;;;;;;;;17.80;57.00;;;;;;5063002;28;824;-67
2022/12/18 06:41:11;;;;;;;;;;;17.70;57.00;;;;;;5065100;28;1264;-68
2022/12/18 06:43:36;;;;;;;;;;;17.70;57.00;;;;;;5065605;28;956;-68
2022/12/18 06:46:02;;;;;;;;;;;17.70;57.00;;;;;;5058988;28;998;-69
2022/12/18 06:48:28;;;;;;;;;;;17.70;57.00;;;;;;5064929;28;1965;-69
2022/12/18 06:50:53;;;;;;;;;;;17.70;57.00;;;;;;5062505;28;1389;-69
2022/12/18 06:53:18;;;;;;;;;;;17.70;57.00;;;;;;5062450;28;931;-69
2022/12/18 06:55:44;;;;;;;;;;;17.70;57.00;;;;;;5067703;28;951;-69
2022/12/18 06:58:09;;;;;;;;;;;17.70;57.00;;;;;;5061584;28;1526;-69
2022/12/18 07:00:35;;;;;;;;;;;17.70;57.00;;;;;;5064149;28;1270;-69
2022/12/18 07:03:00;;;;;;;;;;;17.70;57.00;;;;;;5060176;28;829;-68
2022/12/18 07:05:26;;;;;;;;;;;17.70;57.00;;;;;;5063989;28;1500;-69
2022/12/18 07:07:52;;;;;;;;;;;17.80;57.00;;;;;;5066645;28;891;-69
2022/12/18 07:10:17;;;;;;;;;;;17.80;57.00;;;;;;5063163;28;1905;-69
2022/12/18 07:12:43;;;;;;;;;;;17.80;57.00;;;;;;5064259;28;931;-69
2022/12/18 07:15:08;;;;;;;;;;;17.80;57.00;;;;;;5062420;28;775;-67
2022/12/18 07:17:34;;;;;;;;;;;17.80;57.00;;;;;;5063201;28;1401;-69
2022/12/18 07:19:59;;;;;;;;;;;17.80;57.00;;;;;;5064369;28;836;-67
2022/12/18 07:22:25;;;;;;;;;;;17.80;57.00;;;;;;5064517;28;1184;-67
2022/12/18 07:24:50;;;;;;;;;;;17.80;57.00;;;;;;5061484;28;796;-68
2022/12/18 07:27:16;;;;;;;;;;;17.70;56.90;;;;;;5064082;28;1014;-69
2022/12/18 07:29:41;;;;;;;;;;;17.70;57.00;;;;;;5064890;28;1906;-69
2022/12/18 07:32:07;;;;;;;;;;;17.70;57.00;;;;;;5059930;28;1352;-69
2022/12/18 07:34:32;;;;;;;;;;;17.70;57.00;;;;;;5058223;28;1312;-67
2022/12/18 07:36:58;;;;;;;;;;;17.70;57.00;;;;;;5059962;28;939;-68
2022/12/18 07:39:23;;;;;;;;;;;17.70;57.00;;;;;;5078931;28;970;-69
2022/12/18 07:42:30;;;;;;;;;;;17.70;57.00;;;;;;5060158;28;1372;-69
2022/12/18 07:44:34;;;;;;;;;;;17.70;57.00;;;;;;5063159;28;1184;-70
2022/12/18 07:47:00;;;;;;;;;;;17.70;57.10;;;;;;5059664;28;879;-70
2022/12/18 07:49:25;;;;;;;;;;;17.70;57.00;;;;;;5048213;28;5488;-69
2022/12/18 07:51:51;;;;;;;;;;;17.70;57.00;;;;;;5059911;28;4802;-68
2022/12/18 07:54:16;;;;;;;;;;;17.70;57.00;;;;;;5062561;28;783;-68
2022/12/18 07:56:41;;;;;;;;;;;17.80;57.00;;;;;;5066608;28;934;-68
2022/12/18 07:59:07;;;;;;;;;;;17.80;57.00;;;;;;5060648;28;1030;-69
2022/12/18 08:01:33;;;;;;;;;;;17.80;56.90;;;;;;5062725;28;2146;-69
2022/12/18 08:03:58;;;;;;;;;;;17.80;56.90;;;;;;5064755;28;1371;-69
2022/12/18 08:06:24;;;;;;;;;;;17.80;56.90;;;;;;5059674;28;1421;-69
2022/12/18 08:08:50;;;;;;;;;;;17.80;56.80;;;;;;5060435;28;1905;-69
2022/12/18 08:11:16;;;;;;;;;;;17.80;56.80;;;;;;5059247;28;1365;-69
2022/12/18 08:13:41;;;;;;;;;;;17.80;56.80;;;;;;5059496;28;938;-69
2022/12/18 08:16:07;;;;;;;;;;;17.80;56.70;;;;;;5062067;28;1065;-69
2022/12/18 08:18:33;;;;;;;;;;;17.80;56.70;;;;;;5061403;28;832;-69
2022/12/18 08:21:06;;;;;;;;;;;17.80;56.70;;;;;;5059736;28;1293;-69
2022/12/18 08:23:32;;;;;;;;;;;17.90;56.70;;;;;;5063891;28;1139;-69
2022/12/18 08:25:58;;;;;;;;;;;17.90;56.70;;;;;;5060868;28;1022;-70
2022/12/18 08:28:23;;;;;;;;;;;17.90;56.70;;;;;;5062880;28;1965;-69
2022/12/18 08:30:51;;;;;;;;;;;17.90;56.70;;;;;;5062450;28;1397;-69
2022/12/18 08:33:17;;;;;;;;;;;17.90;56.70;;;;;;5060591;28;836;-69
2022/12/18 08:35:42;;;;;;;;;;;17.90;56.70;;;;;;5065547;28;1005;-69
2022/12/18 08:38:08;;;;;;;;;;;17.90;56.60;;;;;;5064216;28;798;-69
2022/12/18 08:40:33;;;;;;;;;;;17.90;56.60;;;;;;5064453;28;1302;-69
2022/12/18 08:45:43;;;;;;;;;;;17.90;56.60;;;;;;5061651;28;904;-69
2022/12/18 08:48:08;;;;;;;;;;;17.90;56.60;;;;;;5061782;28;1898;-69
2022/12/18 08:50:34;;;;;;;;;;;17.90;56.60;;;;;;5062569;28;1271;-69
2022/12/18 08:53:00;;;;;;;;;;;17.90;56.60;;;;;;5062909;28;950;-69
2022/12/18 08:55:25;;;;;;;;;;;17.90;56.60;;;;;;5059997;28;852;-69
2022/12/18 08:57:51;;;;;;;;;;;17.90;56.60;;;;;;5059402;28;1307;-69
2022/12/18 09:00:16;;;;;;;;;;;17.90;56.60;;;;;;5061099;28;1381;-69
2022/12/18 09:02:42;;;;;;;;;;;17.90;56.60;;;;;;5060753;28;898;-69
2022/12/18 09:05:07;;;;;;;;;;;17.90;56.50;;;;;;5064398;28;1452;-69
2022/12/18 09:07:33;;;;;;;;;;;17.90;56.50;;;;;;5059512;28;1272;-69
2022/12/18 09:09:58;;;;;;;;;;;17.90;56.50;;;;;;5059463;28;1969;-69
2022/12/18 09:12:23;;;;;;;;;;;17.90;56.50;;;;;;5060269;28;1326;-69
2022/12/18 09:14:49;;;;;;;;;;;17.90;56.50;;;;;;5061567;28;772;-69
2022/12/18 09:17:14;;;;;;;;;;;17.90;56.50;;;;;;5061179;28;868;-69
2022/12/18 09:19:40;;;;;;;;;;;18.00;56.50;;;;;;5056862;28;1111;-69
2022/12/18 09:22:05;;;;;;;;;;;18.00;56.50;;;;;;5064791;28;1267;-69
2022/12/18 09:24:31;;;;;;;;;;;17.90;56.50;;;;;;5059667;28;911;-70
2022/12/18 09:26:56;;;;;;;;;;;18.00;56.50;;;;;;5058755;28;994;-69
2022/12/18 09:29:22;;;;;;;;;;;17.90;56.40;;;;;;5058390;28;1971;-69
2022/12/18 09:31:47;;;;;;;;;;;17.90;56.40;;;;;;5057107;28;1331;-69
2022/12/18 09:34:13;;;;;;;;;;;18.00;56.50;;;;;;5059486;28;828;-69
2022/12/18 09:36:38;;;;;;;;;;;18.00;56.40;;;;;;5060520;28;899;-69
2022/12/18 09:39:04;;;;;;;;;;;18.00;56.50;;;;;;5059271;28;1072;-69
2022/12/18 09:41:34;;;;;;;;;;;18.00;56.40;;;;;;5056763;28;1256;-69
2022/12/18 09:44:01;;;;;;;;;;;18.00;56.40;;;;;;5058601;28;893;-69
2022/12/18 09:46:27;;;;;;;;;;;18.00;56.40;;;;;;5067515;28;882;-69
2022/12/18 09:48:52;;;;;;;;;;;18.00;56.40;;;;;;5059745;28;1961;-69
2022/12/18 09:51:19;;;;;;;;;;;18.00;56.40;;;;;;5061537;28;1213;-69
2022/12/18 09:53:46;;;;;;;;;;;18.00;56.40;;;;;;5055870;28;844;-69
2022/12/18 09:56:18;;;;;;;;;;;18.00;56.40;;;;;;5044789;28;890;-69
2022/12/18 09:58:55;;;;;;;;;;;17.90;56.40;;;;;;5060044;28;1300;-69
2022/12/18 10:01:21;;;;;;;;;;;18.00;56.40;;;;;;5065669;28;1439;-69
2022/12/18 10:03:46;;;;;;;;;;;18.00;56.40;;;;;;5064888;28;1463;-69
2022/12/18 10:06:18;;;;;;;;;;;17.90;56.40;;;;;;5064318;28;949;-69
2022/12/18 10:08:55;;;;;;;;;;;17.90;56.40;;;;;;5059038;28;1902;-69
2022/12/18 10:11:23;;;;;;;;;;;18.00;56.50;;;;;;5063062;28;1374;-69
2022/12/18 10:13:52;;;;;;;;;;;18.00;56.50;;;;;;5065623;28;1389;-69
2022/12/18 10:16:19;;;;;;;;;;;18.00;56.40;;;;;;5063258;28;861;-69
2022/12/18 10:18:45;;;;;;;;;;;18.00;56.40;;;;;;5065678;28;927;-69
2022/12/18 10:21:11;;;;;;;;;;;18.00;56.40;;;;;;5062483;28;1311;-69
2022/12/18 10:23:56;;;;;;;;;;;18.00;56.50;;;;;;5062028;28;915;-69
2022/12/18 10:26:22;;;;;;;;;;;17.90;56.40;;;;;;5062134;28;851;-69
2022/12/18 10:28:47;;;;;;;;;;;17.90;56.50;;;;;;5063065;28;1886;-69
2022/12/18 10:31:17;;;;;;;;;;;17.90;56.50;;;;;;5059081;28;1275;-69
2022/12/18 10:33:42;;;;;;;;;;;17.90;56.50;;;;;;5063754;28;997;-69
2022/12/18 10:36:08;;;;;;;;;;;17.90;56.50;;;;;;5063879;28;970;-69
2022/12/18 10:38:33;;;;;;;;;;;17.90;56.50;;;;;;5062266;28;859;-69
2022/12/18 10:41:03;;;;;;;;;;;17.90;56.50;;;;;;5064123;28;1267;-69
2022/12/18 10:43:38;;;;;;;;;;;17.90;56.50;;;;;;5064833;28;916;-69
2022/12/18 10:46:09;;;;;;;;;;;17.90;56.50;;;;;;5064270;28;893;-69
2022/12/18 10:48:47;;;;;;;;;;;17.90;56.50;;;;;;5060520;28;1918;-69
2022/12/18 10:51:28;;;;;;;;;;;17.90;56.50;;;;;;5063312;28;1255;-69
2022/12/18 10:53:57;;;;;;;;;;;17.90;56.50;;;;;;5058914;28;836;-69
2022/12/18 10:56:23;;;;;;;;;;;17.90;56.50;;;;;;5063079;28;899;-69
2022/12/18 10:58:59;;;;;;;;;;;17.90;56.50;;;;;;5063045;28;1450;-69
2022/12/18 11:01:24;;;;;;;;;;;17.90;56.50;;;;;;5062138;28;1245;-69
2022/12/18 11:03:50;;;;;;;;;;;17.90;56.50;;;;;;5061991;28;1436;-69
2022/12/18 11:06:16;;;;;;;;;;;17.90;56.50;;;;;;5059681;28;891;-69
2022/12/18 11:08:43;;;;;;;;;;;17.90;56.50;;;;;;5059328;28;1906;-69
2022/12/18 11:11:16;;;;;;;;;;;17.90;56.50;;;;;;5069001;28;1549;-69
2022/12/18 11:13:41;;;;;;;;;;;17.90;56.50;;;;;;5063054;28;844;-69
2022/12/18 11:16:07;;;;;;;;;;;17.90;56.50;;;;;;5062722;28;875;-69
2022/12/18 11:18:33;;;;;;;;;;;17.90;56.50;;;;;;5062980;28;829;-69
2022/12/18 11:20:58;;;;;;;;;;;17.90;56.60;;;;;;5061530;28;1354;-69
2022/12/18 11:23:24;;;;;;;;;;;17.90;56.50;;;;;;5061903;28;800;-69
2022/12/18 11:25:59;;;;;;;;;;;17.90;56.60;;;;;;5061939;28;858;-69
2022/12/18 11:28:29;;;;;;;;;;;17.90;56.60;;;;;;5062878;28;1961;-69
2022/12/18 11:31:13;;;;;;;;;;;17.90;56.60;;;;;;5064418;28;1219;-69
2022/12/18 11:33:39;;;;;;;;;;;17.90;56.50;;;;;;5058715;28;1901;-69
2022/12/18 11:36:04;;;;;;;;;;;17.90;56.60;;;;;;5063731;28;1425;-69
2022/12/18 11:38:37;;;;;;;;;;;17.90;56.60;;;;;;5064643;28;1537;-69
2022/12/18 11:41:05;;;;;;;;;;;17.90;56.60;;;;;;5060347;28;2212;-68
2022/12/18 11:43:46;;;;;;;;;;;17.90;56.60;;;;;;5063294;28;1429;-68
2022/12/18 11:46:13;;;;;;;;;;;17.90;56.50;;;;;;5063533;28;1395;-68
2022/12/18 11:48:49;;;;;;;;;;;17.90;56.60;;;;;;5065771;28;1906;-68
2022/12/18 11:51:17;;;;;;;;;;;17.90;56.60;;;;;;5078891;28;1347;-68
2022/12/18 11:53:43;;;;;;;;;;;17.90;56.60;;;;;;5062467;28;808;-68
2022/12/18 11:56:14;;;;;;;;;;;17.90;56.60;;;;;;5061747;28;1025;-68
2022/12/18 11:58:46;;;;;;;;;;;17.90;56.60;;;;;;5060540;28;1050;-68
2022/12/18 12:01:30;;;;;;;;;;;17.90;56.60;;;;;;5064930;28;1243;-68
2022/12/18 12:04:14;;;;;;;;;;;17.90;56.50;;;;;;5060414;28;922;-68
2022/12/18 12:06:49;;;;;;;;;;;17.90;56.60;;;;;;5059821;28;2004;-68
2022/12/18 12:09:21;;;;;;;;;;;17.90;56.60;;;;;;5058522;28;2033;-69
2022/12/18 12:12:05;;;;;;;;;;;17.90;56.60;;;;;;5050690;28;1465;-68
2022/12/18 12:14:31;;;;;;;;;;;17.90;56.50;;;;;;5063353;28;1260;-69
2022/12/18 12:16:57;;;;;;;;;;;17.90;56.50;;;;;;5066337;28;1436;-69
2022/12/18 12:19:32;;;;;;;;;;;17.90;56.50;;;;;;5065913;28;794;-69
2022/12/18 12:22:04;;;;;;;;;;;17.90;56.50;;;;;;5061763;28;1331;-68
2022/12/18 12:24:49;;;;;;;;;;;17.90;56.50;;;;;;5062445;28;836;-68
2022/12/18 12:27:33;;;;;;;;;;;17.90;56.50;;;;;;5060547;28;895;-69
2022/12/18 12:30:05;;;;;;;;;;;17.90;56.50;;;;;;5065788;28;1961;-68
2022/12/18 12:32:37;;;;;;;;;;;17.90;56.50;;;;;;5060748;28;1277;-68
2022/12/18 12:35:14;;;;;;;;;;;17.90;56.40;;;;;;5061273;28;1293;-68
2022/12/18 12:37:43;;;;;;;;;;;17.90;56.40;;;;;;5063292;28;828;-68
2022/12/18 12:40:11;;;;;;;;;;;17.90;56.40;;;;;;5063248;28;1257;-68
2022/12/18 12:45:25;;;;;;;;;;;17.90;56.40;;;;;;5067397;28;1014;-68
2022/12/18 12:47:51;;;;;;;;;;;18.00;56.40;;;;;;5058668;28;2130;-68
2022/12/18 12:50:17;;;;;;;;;;;18.00;56.40;;;;;;5060046;28;1902;-70
2022/12/18 12:52:50;;;;;;;;;;;18.00;56.40;;;;;;5060050;28;1449;-68
2022/12/18 12:55:17;;;;;;;;;;;17.90;56.40;;;;;;5061139;28;1540;-68
2022/12/18 12:57:48;;;;;;;;;;;18.00;56.40;;;;;;5062672;28;903;-68
2022/12/18 13:00:17;;;;;;;;;;;18.00;56.40;;;;;;5065334;28;1279;-69
2022/12/18 13:02:46;;;;;;;;;;;17.90;56.40;;;;;;5063252;28;892;-69
2022/12/18 13:05:17;;;;;;;;;;;18.00;56.40;;;;;;5061067;28;1159;-69
2022/12/18 13:07:46;;;;;;;;;;;18.00;56.40;;;;;;5061496;28;2144;-68
2022/12/18 13:10:19;;;;;;;;;;;18.00;56.40;;;;;;5061060;28;1933;-68
2022/12/18 13:12:58;;;;;;;;;;;18.00;56.40;;;;;;5062327;28;1460;-69
2022/12/18 13:15:26;;;;;;;;;;;17.90;56.30;;;;;;5060217;28;1519;-69
2022/12/18 13:18:09;;;;;;;;;;;18.00;56.30;;;;;;5052835;28;1883;-69
2022/12/18 13:20:42;;;;;;;;;;;18.00;56.30;;;;;;5057450;28;1881;-68
2022/12/18 13:23:25;;;;;;;;;;;18.00;56.30;;;;;;5074443;28;1501;-68
2022/12/18 13:25:51;;;;;;;;;;;18.00;56.30;;;;;;5066717;28;1947;-68
2022/12/18 13:28:20;;;;;;;;;;;18.00;56.30;;;;;;5053076;28;1431;-69
2022/12/18 13:30:48;;;;;;;;;;;18.00;56.30;;;;;;5058297;28;1594;-68
2022/12/18 13:33:14;;;;;;;;;;;18.00;56.30;;;;;;5057932;28;1371;-68
2022/12/18 13:35:45;;;;;;;;;;;18.00;56.30;;;;;;5059010;28;876;-68
2022/12/18 13:38:29;;;;;;;;;;;18.00;56.30;;;;;;5060598;28;827;-68
2022/12/18 13:40:55;;;;;;;;;;;18.00;56.30;;;;;;5061293;28;1369;-68
2022/12/18 13:43:21;;;;;;;;;;;18.00;56.20;;;;;;5061205;28;919;-68
2022/12/18 13:45:49;;;;;;;;;;;18.00;56.20;;;;;;5061409;28;820;-68
2022/12/18 13:48:22;;;;;;;;;;;18.00;56.20;;;;;;5056884;28;1038;-68
2022/12/18 13:50:55;;;;;;;;;;;18.00;56.20;;;;;;5061742;28;1306;-68
2022/12/18 13:53:25;;;;;;;;;;;18.00;56.20;;;;;;5058363;28;1954;-68
2022/12/18 13:55:51;;;;;;;;;;;18.00;56.20;;;;;;5058978;28;1936;-68
2022/12/18 13:58:16;;;;;;;;;;;18.00;56.20;;;;;;5059446;28;1308;-68
2022/12/18 14:00:42;;;;;;;;;;;18.00;56.20;;;;;;5066368;28;1725;-68
2022/12/18 14:03:18;;;;;;;;;;;18.00;56.20;;;;;;5060075;28;1710;-68
2022/12/18 14:05:44;;;;;;;;;;;18.00;56.20;;;;;;5062867;28;847;-68
2022/12/18 14:08:13;;;;;;;;;;;18.00;56.20;;;;;;5057103;28;941;-68
2022/12/18 14:10:42;;;;;;;;;;;18.00;56.20;;;;;;5058739;28;1981;-67
2022/12/18 14:13:08;;;;;;;;;;;18.00;56.20;;;;;;5059988;28;804;-68
2022/12/18 14:15:41;;;;;;;;;;;18.00;56.20;;;;;;5059654;28;830;-68
2022/12/18 14:18:20;;;;;;;;;;;18.00;56.20;;;;;;5060776;28;821;-68
2022/12/18 14:20:45;;;;;;;;;;;18.00;56.30;;;;;;5059014;28;1318;-66
2022/12/18 14:23:40;;;;;;;;;;;18.00;56.20;;;;;;5059815;28;1126;-68
2022/12/18 14:26:38;;;;;;;;;;;18.00;56.20;;;;;;5046040;28;1658;-67
2022/12/18 14:29:19;;;;;;;;;;;18.00;56.20;;;;;;5029702;28;1902;-68
2022/12/18 14:31:44;;;;;;;;;;;18.00;56.20;;;;;;5058995;28;1354;-68
2022/12/18 14:34:16;;;;;;;;;;;18.00;56.20;;;;;;5063669;28;995;-68
2022/12/18 14:36:41;;;;;;;;;;;18.00;56.20;;;;;;5060037;28;830;-68
2022/12/18 14:39:11;;;;;;;;;;;18.00;56.20;;;;;;5061552;28;1427;-68
2022/12/18 14:41:37;;;;;;;;;;;18.00;56.20;;;;;;5065456;28;1349;-68
2022/12/18 14:44:05;;;;;;;;;;;18.00;56.30;;;;;;5061140;28;887;-68
2022/12/18 14:46:34;;;;;;;;;;;18.00;56.20;;;;;;5062564;28;901;-69